sensor_id;sensor_type;location;lat;lon;timestamp;pressure;altitude;pressure_sealevel;temperature;humidity
54459;BME280;40368;49.350;8.152;2022-08-01T00:00:12;1001.6;;;30.13;33.85
54459;BME280;40368;49.350;8.152;2022-08-01T00:01:26;1001.6;;;30.14;33.75
54459;BME280;40368;49.350;8.152;2022-08-01T00:02:03;1000.6;;;32.5;25.57
54459;BME280;40368;49.350;8.152;2022-08-01T00:03:17;1001.5;;;30.1;33.81
54459;BME280;40368;49.350;8.152;2022-08-01T00:05:08;1001.5;;;30.03;34.16
54459;BME280;40368;49.350;8.152;2022-08-01T00:06:59;1001.5;;;30.02;32.95
54459;BME280;40368;49.350;8.152;2022-08-01T00:08:13;1001.5;;;30.03;34.27
54459;BME280;40368;49.350;8.152;2022-08-01T00:09:28;1001.5;;;29.96;34.19
54459;BME280;40368;49.350;8.152;2022-08-01T00:10:06;1001.5;;;29.98;33.58
54459;BME280;40368;49.350;8.152;2022-08-01T00:11:19;1001.5;;;29.98;34.33
54459;BME280;40368;49.350;8.152;2022-08-01T00:11:56;1001.5;;;29.98;34.23
54459;BME280;40368;49.350;8.152;2022-08-01T00:13:10;1001.5;;;29.95;33.93
54459;BME280;40368;49.350;8.152;2022-08-01T00:14:24;1001.6;;;29.96;33.67
54459;BME280;40368;49.350;8.152;2022-08-01T00:15:01;1001.5;;;29.93;33.68
54459;BME280;40368;49.350;8.152;2022-08-01T00:16:15;1001.6;;;30.01;33.5
54459;BME280;40368;49.350;8.152;2022-08-01T00:17:29;1001.6;;;30;34.02
54459;BME280;40368;49.350;8.152;2022-08-01T00:18:06;1001.6;;;30;33.63
54459;BME280;40368;49.350;8.152;2022-08-01T00:19:21;1001.6;;;30.01;32.75
54459;BME280;40368;49.350;8.152;2022-08-01T00:19:58;1001.6;;;29.99;33.43
54459;BME280;40368;49.350;8.152;2022-08-01T00:21:12;1001.6;;;30.02;33.72
54459;BME280;40368;49.350;8.152;2022-08-01T00:22:26;1001.6;;;29.95;33.55
54459;BME280;40368;49.350;8.152;2022-08-01T00:23:03;1001.6;;;29.97;33.62
54459;BME280;40368;49.350;8.152;2022-08-01T00:24:17;1001.6;;;29.97;33.45
54459;BME280;40368;49.350;8.152;2022-08-01T00:25:31;1001.6;;;30.01;32.78
54459;BME280;40368;49.350;8.152;2022-08-01T00:26:08;1001.6;;;30;33.17
54459;BME280;40368;49.350;8.152;2022-08-01T00:27:22;1001.6;;;30.01;32.63
54459;BME280;40368;49.350;8.152;2022-08-01T00:27:59;1001.6;;;30.03;33.57
54459;BME280;40368;49.350;8.152;2022-08-01T00:29:13;1001.6;;;30.02;33.53
54459;BME280;40368;49.350;8.152;2022-08-01T00:30:28;1001.6;;;30.02;33.77
54459;BME280;40368;49.350;8.152;2022-08-01T00:31:05;1001.6;;;30.01;33.95
54459;BME280;40368;49.350;8.152;2022-08-01T00:32:19;1001.6;;;30.04;33.05
54459;BME280;40368;49.350;8.152;2022-08-01T00:32:56;1001.6;;;30.03;33.64
54459;BME280;40368;49.350;8.152;2022-08-01T00:34:10;1001.6;;;30.05;33.84
54459;BME280;40368;49.350;8.152;2022-08-01T00:35:24;1001.7;;;30.11;33.97
54459;BME280;40368;49.350;8.152;2022-08-01T00:36:01;1001.7;;;30.09;32.83
54459;BME280;40368;49.350;8.152;2022-08-01T00:37:15;1001.7;;;30.05;34.38
54459;BME280;40368;49.350;8.152;2022-08-01T00:38:30;1001.7;;;29.99;34.3
54459;BME280;40368;49.350;8.152;2022-08-01T00:39:07;1001.7;;;30;34.23
54459;BME280;40368;49.350;8.152;2022-08-01T00:40:21;1001.7;;;30.05;33.81
54459;BME280;40368;49.350;8.152;2022-08-01T00:40:58;1001.7;;;29.98;33.64
54459;BME280;40368;49.350;8.152;2022-08-01T00:42:12;1001.6;;;30.01;34.85
54459;BME280;40368;49.350;8.152;2022-08-01T00:43:26;1001.7;;;29.94;34.84
54459;BME280;40368;49.350;8.152;2022-08-01T00:44:03;1001.7;;;29.93;33.71
54459;BME280;40368;49.350;8.152;2022-08-01T00:45:17;1001.6;;;29.91;34.9
54459;BME280;40368;49.350;8.152;2022-08-01T00:46:31;1001.7;;;29.93;34.76
54459;BME280;40368;49.350;8.152;2022-08-01T00:47:08;1001.7;;;29.91;33.4
54459;BME280;40368;49.350;8.152;2022-08-01T00:48:22;1001.6;;;29.93;33.97
54459;BME280;40368;49.350;8.152;2022-08-01T00:49:00;1001.7;;;29.93;34.64
54459;BME280;40368;49.350;8.152;2022-08-01T00:50:14;1001.7;;;29.95;34.79
54459;BME280;40368;49.350;8.152;2022-08-01T00:51:28;1001.7;;;29.9;34.97
54459;BME280;40368;49.350;8.152;2022-08-01T00:52:05;1001.7;;;29.92;34.47
54459;BME280;40368;49.350;8.152;2022-08-01T00:54:25;1001.6;;;29.98;34.21
54459;BME280;40368;49.350;8.152;2022-08-01T00:55:02;1001.6;;;29.87;34.42
54459;BME280;40368;49.350;8.152;2022-08-01T00:56:16;1001.7;;;30.01;34.91
54459;BME280;40368;49.350;8.152;2022-08-01T00:57:30;1001.7;;;30.02;34.85
54459;BME280;40368;49.350;8.152;2022-08-01T00:58:07;1001.7;;;30.01;34.12
54459;BME280;40368;49.350;8.152;2022-08-01T00:59:22;1001.7;;;30.02;34.82
54459;BME280;40368;49.350;8.152;2022-08-01T00:59:58;1001.7;;;30.01;34.68
54459;BME280;40368;49.350;8.152;2022-08-01T01:01:13;1001.7;;;30.02;34.53
54459;BME280;40368;49.350;8.152;2022-08-01T01:02:27;1001.7;;;29.97;34.98
54459;BME280;40368;49.350;8.152;2022-08-01T01:03:04;1001.7;;;30.03;35
54459;BME280;40368;49.350;8.152;2022-08-01T01:04:18;1001.6;;;29.91;35.16
54459;BME280;40368;49.350;8.152;2022-08-01T01:05:33;1001.7;;;29.88;34.24
54459;BME280;40368;49.350;8.152;2022-08-01T01:06:25;1001.7;;;29.9;34.9
54459;BME280;40368;49.350;8.152;2022-08-01T01:07:24;1001.7;;;29.8;35.31
54459;BME280;40368;49.350;8.152;2022-08-01T01:08:02;1001.7;;;29.83;35.42
54459;BME280;40368;49.350;8.152;2022-08-01T01:09:19;1001.7;;;29.81;35.24
54459;BME280;40368;49.350;8.152;2022-08-01T01:10:31;1001.7;;;29.77;35.61
54459;BME280;40368;49.350;8.152;2022-08-01T01:11:09;1001.7;;;29.79;35.31
54459;BME280;40368;49.350;8.152;2022-08-01T01:12:22;1001.7;;;29.75;35.35
54459;BME280;40368;49.350;8.152;2022-08-01T01:12:59;1001.7;;;29.77;35.61
54459;BME280;40368;49.350;8.152;2022-08-01T01:14:13;1001.7;;;29.81;35.24
54459;BME280;40368;49.350;8.152;2022-08-01T01:15:26;1001.7;;;29.85;35.1
54459;BME280;40368;49.350;8.152;2022-08-01T01:16:04;1001.7;;;29.84;35.41
54459;BME280;40368;49.350;8.152;2022-08-01T01:17:17;1001.7;;;29.84;35.09
54459;BME280;40368;49.350;8.152;2022-08-01T01:18:32;1001.7;;;29.83;34.47
54459;BME280;40368;49.350;8.152;2022-08-01T01:19:08;1001.7;;;29.84;35.18
54459;BME280;40368;49.350;8.152;2022-08-01T01:20:23;1001.7;;;29.91;34.97
54459;BME280;40368;49.350;8.152;2022-08-01T01:21:00;1001.7;;;29.86;34.42
54459;BME280;40368;49.350;8.152;2022-08-01T01:22:46;1001.7;;;29.88;35.01
54459;BME280;40368;49.350;8.152;2022-08-01T01:23:32;1001.7;;;29.89;35.5
54459;BME280;40368;49.350;8.152;2022-08-01T01:24:10;1001.7;;;29.9;35.09
54459;BME280;40368;49.350;8.152;2022-08-01T01:25:23;1001.8;;;29.88;34.92
54459;BME280;40368;49.350;8.152;2022-08-01T01:26:36;1001.7;;;29.87;35.48
54459;BME280;40368;49.350;8.152;2022-08-01T01:27:10;1001.8;;;29.86;35.2
54459;BME280;40368;49.350;8.152;2022-08-01T01:28:26;1001.8;;;29.84;35.7
54459;BME280;40368;49.350;8.152;2022-08-01T01:29:02;1001.8;;;29.85;35.54
54459;BME280;40368;49.350;8.152;2022-08-01T01:30:14;1001.8;;;29.83;35.62
54459;BME280;40368;49.350;8.152;2022-08-01T01:31:29;1001.8;;;29.89;35.29
54459;BME280;40368;49.350;8.152;2022-08-01T01:32:06;1001.8;;;29.85;34.76
54459;BME280;40368;49.350;8.152;2022-08-01T01:33:20;1001.8;;;29.97;34.62
54459;BME280;40368;49.350;8.152;2022-08-01T01:33:57;1001.8;;;29.93;34.62
54459;BME280;40368;49.350;8.152;2022-08-01T01:35:13;1001.8;;;29.97;34.83
54459;BME280;40368;49.350;8.152;2022-08-01T01:36:25;1001.8;;;29.99;35.41
54459;BME280;40368;49.350;8.152;2022-08-01T01:37:03;1001.8;;;29.98;35.05
54459;BME280;40368;49.350;8.152;2022-08-01T01:38:17;1001.8;;;29.99;34.89
54459;BME280;40368;49.350;8.152;2022-08-01T01:39:31;1001.8;;;29.96;34.96
54459;BME280;40368;49.350;8.152;2022-08-01T01:40:08;1001.8;;;29.99;35.31
54459;BME280;40368;49.350;8.152;2022-08-01T01:41:22;1001.8;;;29.94;35.2
54459;BME280;40368;49.350;8.152;2022-08-01T01:41:59;1001.8;;;29.93;34.78
54459;BME280;40368;49.350;8.152;2022-08-01T01:43:13;1001.8;;;29.96;35.59
54459;BME280;40368;49.350;8.152;2022-08-01T01:44:27;1001.9;;;29.95;35.3
54459;BME280;40368;49.350;8.152;2022-08-01T01:45:04;1001.8;;;29.95;35.18
54459;BME280;40368;49.350;8.152;2022-08-01T01:46:18;1001.8;;;29.95;34.48
54459;BME280;40368;49.350;8.152;2022-08-01T01:47:32;1001.8;;;29.99;35.35
54459;BME280;40368;49.350;8.152;2022-08-01T01:48:09;1001.8;;;29.98;34.5
54459;BME280;40368;49.350;8.152;2022-08-01T01:49:24;1001.8;;;29.99;34.82
54459;BME280;40368;49.350;8.152;2022-08-01T01:50:01;1001.8;;;30;34.5
54459;BME280;40368;49.350;8.152;2022-08-01T01:51:15;1001.8;;;29.99;34.62
54459;BME280;40368;49.350;8.152;2022-08-01T01:52:29;1001.9;;;30.03;35
54459;BME280;40368;49.350;8.152;2022-08-01T01:53:06;1001.8;;;30.01;34.82
54459;BME280;40368;49.350;8.152;2022-08-01T01:54:20;1001.9;;;30.05;35.06
54459;BME280;40368;49.350;8.152;2022-08-01T01:54:57;1001.9;;;30.05;34.66
54459;BME280;40368;49.350;8.152;2022-08-01T01:56:11;1001.9;;;30.03;35.14
54459;BME280;40368;49.350;8.152;2022-08-01T01:57:25;1001.9;;;29.9;35.56
54459;BME280;40368;49.350;8.152;2022-08-01T01:58:02;1001.9;;;29.98;35.45
54459;BME280;40368;49.350;8.152;2022-08-01T01:59:18;1001.9;;;29.91;35.48
54459;BME280;40368;49.350;8.152;2022-08-01T02:00:31;1001.9;;;29.84;35.76
54459;BME280;40368;49.350;8.152;2022-08-01T02:01:08;1001.9;;;29.86;35.65
54459;BME280;40368;49.350;8.152;2022-08-01T02:02:22;1002;;;29.84;35.72
54459;BME280;40368;49.350;8.152;2022-08-01T02:04:05;1002;;;29.82;35.56
54459;BME280;40368;49.350;8.152;2022-08-01T02:05:19;1001.9;;;29.8;35.73
54459;BME280;40368;49.350;8.152;2022-08-01T02:05:56;1001.9;;;29.8;35.61
54459;BME280;40368;49.350;8.152;2022-08-01T02:07:11;1001.9;;;29.82;35.72
54459;BME280;40368;49.350;8.152;2022-08-01T02:08:24;1001.9;;;29.82;35.47
54459;BME280;40368;49.350;8.152;2022-08-01T02:09:01;1001.9;;;29.81;35.65
54459;BME280;40368;49.350;8.152;2022-08-01T02:10:16;1001.9;;;29.83;35.6
54459;BME280;40368;49.350;8.152;2022-08-01T02:11:30;1001.9;;;29.81;35.91
54459;BME280;40368;49.350;8.152;2022-08-01T02:12:07;1001.9;;;29.84;35.68
54459;BME280;40368;49.350;8.152;2022-08-01T02:13:21;1001.9;;;29.86;35.35
54459;BME280;40368;49.350;8.152;2022-08-01T02:13:58;1001.9;;;29.83;34.87
54459;BME280;40368;49.350;8.152;2022-08-01T02:15:12;1001.9;;;29.87;35.35
54459;BME280;40368;49.350;8.152;2022-08-01T02:16:27;1001.9;;;29.85;35.78
54459;BME280;40368;49.350;8.152;2022-08-01T02:17:03;1001.9;;;29.85;34.6
54459;BME280;40368;49.350;8.152;2022-08-01T02:18:17;1001.9;;;29.88;34.79
54459;BME280;40368;49.350;8.152;2022-08-01T02:19:32;1001.9;;;29.85;35.65
54459;BME280;40368;49.350;8.152;2022-08-01T02:20:09;1001.9;;;29.88;35.8
54459;BME280;40368;49.350;8.152;2022-08-01T02:21:25;1001.9;;;29.79;35.37
54459;BME280;40368;49.350;8.152;2022-08-01T02:22:00;1001.9;;;29.81;35.79
54459;BME280;40368;49.350;8.152;2022-08-01T02:23:14;1001.9;;;29.77;35.39
54459;BME280;40368;49.350;8.152;2022-08-01T02:24:28;1002;;;29.77;35.9
54459;BME280;40368;49.350;8.152;2022-08-01T02:25:05;1001.9;;;29.77;35.63
54459;BME280;40368;49.350;8.152;2022-08-01T02:26:19;1002;;;29.76;35.8
54459;BME280;40368;49.350;8.152;2022-08-01T02:26:57;1002;;;29.77;35.81
54459;BME280;40368;49.350;8.152;2022-08-01T02:28:12;1002;;;29.75;36.03
54459;BME280;40368;49.350;8.152;2022-08-01T02:29:27;1002;;;29.75;35.38
54459;BME280;40368;49.350;8.152;2022-08-01T02:30:03;1002;;;29.75;35.63
54459;BME280;40368;49.350;8.152;2022-08-01T02:31:17;1001.9;;;29.75;35.18
54459;BME280;40368;49.350;8.152;2022-08-01T02:32:30;1002;;;29.77;35.46
54459;BME280;40368;49.350;8.152;2022-08-01T02:33:08;1002;;;29.77;35.83
54459;BME280;40368;49.350;8.152;2022-08-01T02:34:21;1002;;;29.7;36.07
54459;BME280;40368;49.350;8.152;2022-08-01T02:34:59;1002;;;29.75;36.09
54459;BME280;40368;49.350;8.152;2022-08-01T02:36:12;1002;;;29.66;35.81
54459;BME280;40368;49.350;8.152;2022-08-01T02:37:26;1002;;;29.62;35.58
54459;BME280;40368;49.350;8.152;2022-08-01T02:38:03;1002;;;29.65;35.78
54459;BME280;40368;49.350;8.152;2022-08-01T02:39:17;1002;;;29.62;35.82
54459;BME280;40368;49.350;8.152;2022-08-01T02:40:32;1002;;;29.57;36.27
54459;BME280;40368;49.350;8.152;2022-08-01T02:41:09;1002;;;29.6;36.01
54459;BME280;40368;49.350;8.152;2022-08-01T02:42:24;1002;;;29.49;36.46
54459;BME280;40368;49.350;8.152;2022-08-01T02:43:00;1002;;;29.52;36.07
54459;BME280;40368;49.350;8.152;2022-08-01T02:44:15;1002;;;29.41;36.27
54459;BME280;40368;49.350;8.152;2022-08-01T02:45:28;1002;;;29.34;36.37
54459;BME280;40368;49.350;8.152;2022-08-01T02:46:06;1002;;;29.37;36.74
54459;BME280;40368;49.350;8.152;2022-08-01T02:47:19;1002;;;29.32;36.71
54459;BME280;40368;49.350;8.152;2022-08-01T02:47:57;1002;;;29.32;36.22
54459;BME280;40368;49.350;8.152;2022-08-01T02:49:10;1002;;;29.27;36.39
54459;BME280;40368;49.350;8.152;2022-08-01T02:50:24;1002;;;29.18;36.91
54459;BME280;40368;49.350;8.152;2022-08-01T02:51:02;1002;;;29.23;36.8
54459;BME280;40368;49.350;8.152;2022-08-01T02:52:16;1002.1;;;29.18;36.83
54459;BME280;40368;49.350;8.152;2022-08-01T02:53:31;1002;;;29.13;37.05
54459;BME280;40368;49.350;8.152;2022-08-01T02:54:08;1002;;;29.16;37.21
54459;BME280;40368;49.350;8.152;2022-08-01T02:55:21;1002;;;29.13;37.05
54459;BME280;40368;49.350;8.152;2022-08-01T02:55:58;1002;;;29.12;37.03
54459;BME280;40368;49.350;8.152;2022-08-01T02:57:12;1002;;;29.15;36.66
54459;BME280;40368;49.350;8.152;2022-08-01T02:58:27;1002;;;29.15;36.63
54459;BME280;40368;49.350;8.152;2022-08-01T02:59:04;1002;;;29.15;36.63
54459;BME280;40368;49.350;8.152;2022-08-01T03:00:17;1002;;;29.16;37.01
54459;BME280;40368;49.350;8.152;2022-08-01T03:01:32;1001.9;;;29.16;36.64
54459;BME280;40368;49.350;8.152;2022-08-01T03:02:09;1002;;;29.17;36.69
54459;BME280;40368;49.350;8.152;2022-08-01T03:03:23;1002;;;29.16;36.97
54459;BME280;40368;49.350;8.152;2022-08-01T03:04:00;1002;;;29.17;36.6
54459;BME280;40368;49.350;8.152;2022-08-01T03:05:14;1002;;;29.17;36.86
54459;BME280;40368;49.350;8.152;2022-08-01T03:06:28;1002;;;29.14;37.06
54459;BME280;40368;49.350;8.152;2022-08-01T03:07:06;1002;;;29.16;36.86
54459;BME280;40368;49.350;8.152;2022-08-01T03:08:19;1002;;;29.11;35.82
54459;BME280;40368;49.350;8.152;2022-08-01T03:08:56;1002;;;29.09;36.14
54459;BME280;40368;49.350;8.152;2022-08-01T03:10:10;1002;;;29.13;36.19
54459;BME280;40368;49.350;8.152;2022-08-01T03:11:24;1002;;;29.14;37.06
54459;BME280;40368;49.350;8.152;2022-08-01T03:12:02;1002;;;29.16;36.74
54459;BME280;40368;49.350;8.152;2022-08-01T03:13:16;1002;;;29.07;36.34
54459;BME280;40368;49.350;8.152;2022-08-01T03:14:22;1002;;;28.97;37.34
54459;BME280;40368;49.350;8.152;2022-08-01T03:14:59;1002;;;29.03;36.41
54459;BME280;40368;49.350;8.152;2022-08-01T03:16:13;1002;;;28.87;37.66
54459;BME280;40368;49.350;8.152;2022-08-01T03:17:27;1002;;;28.74;38.03
54459;BME280;40368;49.350;8.152;2022-08-01T03:18:05;1002.1;;;28.8;37.78
54459;BME280;40368;49.350;8.152;2022-08-01T03:19:18;1002;;;28.7;38.04
54459;BME280;40368;49.350;8.152;2022-08-01T03:20:33;1002.1;;;28.69;38.06
54459;BME280;40368;49.350;8.152;2022-08-01T03:21:09;1002;;;28.68;37.64
54459;BME280;40368;49.350;8.152;2022-08-01T03:22:24;1002.1;;;28.64;38.84
54459;BME280;40368;49.350;8.152;2022-08-01T03:23:01;1002;;;28.69;38.34
54459;BME280;40368;49.350;8.152;2022-08-01T03:24:15;1002;;;28.62;38.56
54459;BME280;40368;49.350;8.152;2022-08-01T03:25:29;1002.1;;;28.66;38.05
54459;BME280;40368;49.350;8.152;2022-08-01T03:26:06;1002.1;;;28.62;38.09
54459;BME280;40368;49.350;8.152;2022-08-01T03:27:20;1002.1;;;28.66;38.27
54459;BME280;40368;49.350;8.152;2022-08-01T03:27:58;1002.1;;;28.66;38.29
54459;BME280;40368;49.350;8.152;2022-08-01T03:29:12;1002.1;;;28.59;38.37
54459;BME280;40368;49.350;8.152;2022-08-01T03:30:26;1002.1;;;28.47;38.72
54459;BME280;40368;49.350;8.152;2022-08-01T03:31:02;1002.1;;;28.53;38.41
54459;BME280;40368;49.350;8.152;2022-08-01T03:32:17;1002.1;;;28.44;38.61
54459;BME280;40368;49.350;8.152;2022-08-01T03:33:31;1002.1;;;28.43;38.7
54459;BME280;40368;49.350;8.152;2022-08-01T03:34:08;1002.1;;;28.44;38
54459;BME280;40368;49.350;8.152;2022-08-01T03:35:23;1002.1;;;28.48;38.07
54459;BME280;40368;49.350;8.152;2022-08-01T03:35:59;1002.1;;;28.46;37.98
54459;BME280;40368;49.350;8.152;2022-08-01T03:37:14;1002.1;;;28.45;38.53
54459;BME280;40368;49.350;8.152;2022-08-01T03:38:27;1002.1;;;28.37;38.77
54459;BME280;40368;49.350;8.152;2022-08-01T03:39:04;1002.1;;;28.41;38.75
54459;BME280;40368;49.350;8.152;2022-08-01T03:40:20;1002.2;;;28.32;38.86
54459;BME280;40368;49.350;8.152;2022-08-01T03:41:33;1002.1;;;28.3;38.98
54459;BME280;40368;49.350;8.152;2022-08-01T03:42:12;1002.2;;;28.32;38.94
54459;BME280;40368;49.350;8.152;2022-08-01T03:43:26;1002.1;;;28.31;38.94
54459;BME280;40368;49.350;8.152;2022-08-01T03:44:02;1002.2;;;28.25;39.47
54459;BME280;40368;49.350;8.152;2022-08-01T03:45:15;1002.1;;;28.33;38.7
54459;BME280;40368;49.350;8.152;2022-08-01T03:46:30;1002.2;;;28.32;39
54459;BME280;40368;49.350;8.152;2022-08-01T03:47:07;1002.2;;;28.34;38.75
54459;BME280;40368;49.350;8.152;2022-08-01T03:48:22;1002.2;;;28.29;38.02
54459;BME280;40368;49.350;8.152;2022-08-01T03:48:58;1002.2;;;28.32;38.89
54459;BME280;40368;49.350;8.152;2022-08-01T03:50:11;1002.2;;;28.3;39.29
54459;BME280;40368;49.350;8.152;2022-08-01T03:51:25;1002.1;;;28.24;39.07
54459;BME280;40368;49.350;8.152;2022-08-01T03:52:03;1002.2;;;28.33;38.69
54459;BME280;40368;49.350;8.152;2022-08-01T03:53:17;1002.2;;;28.29;38.6
54459;BME280;40368;49.350;8.152;2022-08-01T03:54:31;1002.2;;;28.21;38.26
54459;BME280;40368;49.350;8.152;2022-08-01T03:55:08;1002.2;;;28.24;39.24
54459;BME280;40368;49.350;8.152;2022-08-01T03:56:22;1002.2;;;28.12;39.42
54459;BME280;40368;49.350;8.152;2022-08-01T03:56:59;1002.2;;;28.15;39.4
54459;BME280;40368;49.350;8.152;2022-08-01T03:58:13;1002.2;;;28.13;38.77
54459;BME280;40368;49.350;8.152;2022-08-01T03:59:27;1002.2;;;28.07;39.44
54459;BME280;40368;49.350;8.152;2022-08-01T04:00:05;1002.2;;;28.13;39.47
54459;BME280;40368;49.350;8.152;2022-08-01T04:01:18;1002.2;;;28.03;38.42
54459;BME280;40368;49.350;8.152;2022-08-01T04:02:32;1002.2;;;27.98;39.52
54459;BME280;40368;49.350;8.152;2022-08-01T04:03:10;1002.2;;;28.02;39.07
54459;BME280;40368;49.350;8.152;2022-08-01T04:04:24;1002.2;;;27.89;39.47
54459;BME280;40368;49.350;8.152;2022-08-01T04:05:01;1002.2;;;27.93;39.72
54459;BME280;40368;49.350;8.152;2022-08-01T04:06:15;1002.2;;;27.87;39.62
54459;BME280;40368;49.350;8.152;2022-08-01T04:07:30;1002.2;;;27.9;39.53
54459;BME280;40368;49.350;8.152;2022-08-01T04:08:06;1002.2;;;27.9;38.78
54459;BME280;40368;49.350;8.152;2022-08-01T04:09:20;1002.2;;;27.85;39.8
54459;BME280;40368;49.350;8.152;2022-08-01T04:09:57;1002.2;;;27.92;39.36
54459;BME280;40368;49.350;8.152;2022-08-01T04:11:11;1002.2;;;27.79;38.31
54459;BME280;40368;49.350;8.152;2022-08-01T04:12:25;1002;;;27.66;39.45
54459;BME280;40368;49.350;8.152;2022-08-01T04:13:02;1002.2;;;27.78;39.84
54459;BME280;40368;49.350;8.152;2022-08-01T04:14:17;1002.2;;;27.81;39.77
54459;BME280;40368;49.350;8.152;2022-08-01T04:14:54;1002.2;;;27.74;39.89
54459;BME280;40368;49.350;8.152;2022-08-01T04:16:00;1002.2;;;27.78;39.79
54459;BME280;40368;49.350;8.152;2022-08-01T04:17:14;1002.2;;;27.71;39.99
54459;BME280;40368;49.350;8.152;2022-08-01T04:18:28;1002.2;;;27.65;40.3
54459;BME280;40368;49.350;8.152;2022-08-01T04:19:05;1002.2;;;27.7;40.17
54459;BME280;40368;49.350;8.152;2022-08-01T04:20:19;1002.2;;;27.65;40.34
54459;BME280;40368;49.350;8.152;2022-08-01T04:20:56;1002.2;;;27.66;39.92
54459;BME280;40368;49.350;8.152;2022-08-01T04:22:10;1002.2;;;27.61;40.25
54459;BME280;40368;49.350;8.152;2022-08-01T04:23:24;1002.2;;;27.59;39.66
54459;BME280;40368;49.350;8.152;2022-08-01T04:24:03;1002.2;;;27.61;40.51
54459;BME280;40368;49.350;8.152;2022-08-01T04:25:17;1002.2;;;27.56;40.43
54459;BME280;40368;49.350;8.152;2022-08-01T04:26:30;1002.3;;;27.5;40.82
54459;BME280;40368;49.350;8.152;2022-08-01T04:27:09;1002.2;;;27.51;40.76
54459;BME280;40368;49.350;8.152;2022-08-01T04:28:21;1002.3;;;27.42;39.57
54459;BME280;40368;49.350;8.152;2022-08-01T04:28:58;1002.3;;;27.45;40.94
54459;BME280;40368;49.350;8.152;2022-08-01T04:30:12;1002.3;;;27.42;40.99
54459;BME280;40368;49.350;8.152;2022-08-01T04:31:26;1002.3;;;27.37;40.96
54459;BME280;40368;49.350;8.152;2022-08-01T04:32:03;1002.3;;;27.39;41.08
54459;BME280;40368;49.350;8.152;2022-08-01T04:33:17;1002.3;;;27.36;41.33
54459;BME280;40368;49.350;8.152;2022-08-01T04:34:31;1002.4;;;27.4;39.92
54459;BME280;40368;49.350;8.152;2022-08-01T04:35:09;1002.4;;;27.36;41.31
54459;BME280;40368;49.350;8.152;2022-08-01T04:36:23;1002.4;;;27.39;40.98
54459;BME280;40368;49.350;8.152;2022-08-01T04:37:00;1002.4;;;27.42;40.86
54459;BME280;40368;49.350;8.152;2022-08-01T04:38:15;1002.4;;;27.4;40.59
54459;BME280;40368;49.350;8.152;2022-08-01T04:39:28;1002.4;;;27.31;40.95
54459;BME280;40368;49.350;8.152;2022-08-01T04:40:05;1002.4;;;27.37;40.88
54459;BME280;40368;49.350;8.152;2022-08-01T04:41:19;1002.4;;;27.29;40.2
54459;BME280;40368;49.350;8.152;2022-08-01T04:41:56;1002.4;;;27.29;41.16
54459;BME280;40368;49.350;8.152;2022-08-01T04:43:10;1002.4;;;27.36;41.28
54459;BME280;40368;49.350;8.152;2022-08-01T04:44:24;1002.4;;;27.28;41.21
54459;BME280;40368;49.350;8.152;2022-08-01T04:45:02;1002.4;;;27.32;41.76
54459;BME280;40368;49.350;8.152;2022-08-01T04:46:16;1002.4;;;27.31;39.54
54459;BME280;40368;49.350;8.152;2022-08-01T04:47:31;1002.5;;;27.4;41.09
54459;BME280;40368;49.350;8.152;2022-08-01T04:48:07;1002.4;;;27.41;40.23
54459;BME280;40368;49.350;8.152;2022-08-01T04:49:21;1002.5;;;27.41;41.48
54459;BME280;40368;49.350;8.152;2022-08-01T04:49:58;1002.5;;;27.4;40.59
54459;BME280;40368;49.350;8.152;2022-08-01T04:51:12;1002.4;;;27.39;41.36
54459;BME280;40368;49.350;8.152;2022-08-01T04:52:32;1002.4;;;27.4;41.06
54459;BME280;40368;49.350;8.152;2022-08-01T04:53:03;1002.4;;;27.4;41.22
54459;BME280;40368;49.350;8.152;2022-08-01T04:54:18;1002.5;;;27.41;41.29
54459;BME280;40368;49.350;8.152;2022-08-01T04:55:32;1002.4;;;27.36;41.53
54459;BME280;40368;49.350;8.152;2022-08-01T04:56:09;1002.4;;;27.42;41.36
54459;BME280;40368;49.350;8.152;2022-08-01T04:57:23;1002.5;;;27.29;41.76
54459;BME280;40368;49.350;8.152;2022-08-01T04:58:00;1002.5;;;27.31;41.97
54459;BME280;40368;49.350;8.152;2022-08-01T04:59:14;1002.5;;;27.25;41.85
54459;BME280;40368;49.350;8.152;2022-08-01T05:00:28;1002.5;;;27.27;41.35
54459;BME280;40368;49.350;8.152;2022-08-01T05:01:05;1002.5;;;27.28;41.86
54459;BME280;40368;49.350;8.152;2022-08-01T05:02:19;1002.4;;;27.26;41.85
54459;BME280;40368;49.350;8.152;2022-08-01T05:02:56;1002.5;;;27.27;41.86
54459;BME280;40368;49.350;8.152;2022-08-01T05:04:10;1002.4;;;27.25;41.43
54459;BME280;40368;49.350;8.152;2022-08-01T05:05:25;1002.4;;;27.2;42.04
54459;BME280;40368;49.350;8.152;2022-08-01T05:06:02;1002.5;;;27.23;41.49
54459;BME280;40368;49.350;8.152;2022-08-01T05:07:16;1002.4;;;27.19;41.42
54459;BME280;40368;49.350;8.152;2022-08-01T05:08:30;1002.5;;;27.25;41.24
54459;BME280;40368;49.350;8.152;2022-08-01T05:09:07;1002.4;;;27.19;41.24
54459;BME280;40368;49.350;8.152;2022-08-01T05:10:21;1002.4;;;27.4;39.17
54459;BME280;40368;49.350;8.152;2022-08-01T05:10:58;1002.5;;;27.3;41.33
54459;BME280;40368;49.350;8.152;2022-08-01T05:12:12;1002.4;;;27.46;41.25
54459;BME280;40368;49.350;8.152;2022-08-01T05:13:26;1002.5;;;27.41;41.13
54459;BME280;40368;49.350;8.152;2022-08-01T05:14:03;1002.4;;;27.42;41.47
54459;BME280;40368;49.350;8.152;2022-08-01T05:16:24;1002.5;;;27.43;41.12
54459;BME280;40368;49.350;8.152;2022-08-01T05:17:01;1002.4;;;27.38;41.52
54459;BME280;40368;49.350;8.152;2022-08-01T05:18:15;1002.5;;;27.45;40.71
54459;BME280;40368;49.350;8.152;2022-08-01T05:19:29;1002.5;;;27.36;41.69
54459;BME280;40368;49.350;8.152;2022-08-01T05:20:06;1002.5;;;27.38;41.71
54459;BME280;40368;49.350;8.152;2022-08-01T05:21:20;1002.5;;;27.38;41.7
54459;BME280;40368;49.350;8.152;2022-08-01T05:21:57;1002.5;;;27.33;39.74
54459;BME280;40368;49.350;8.152;2022-08-01T05:23:11;1002.5;;;27.45;41.23
54459;BME280;40368;49.350;8.152;2022-08-01T05:24:25;1002.5;;;27.49;41.46
54459;BME280;40368;49.350;8.152;2022-08-01T05:25:03;1002.5;;;27.5;41.25
54459;BME280;40368;49.350;8.152;2022-08-01T05:26:16;1002.5;;;27.46;41.63
54459;BME280;40368;49.350;8.152;2022-08-01T05:27:31;1002.5;;;27.45;41.14
54459;BME280;40368;49.350;8.152;2022-08-01T05:28:08;1002.4;;;27.43;41.39
54459;BME280;40368;49.350;8.152;2022-08-01T05:29:22;1002.5;;;27.4;41.65
54459;BME280;40368;49.350;8.152;2022-08-01T05:29:59;1002.5;;;27.44;41.78
54459;BME280;40368;49.350;8.152;2022-08-01T05:31:13;1002.5;;;27.38;40.96
54459;BME280;40368;49.350;8.152;2022-08-01T05:32:27;1002.4;;;27.4;41.41
54459;BME280;40368;49.350;8.152;2022-08-01T05:33:04;1002.5;;;27.39;41.69
54459;BME280;40368;49.350;8.152;2022-08-01T05:34:19;1002.4;;;27.4;41.79